sensor_id;sensor_type;location;lat;lon;timestamp;pressure;altitude;pressure_sealevel;temperature;humidity
41866;BME280;27539;43.222;27.558;2022-07-29T00:02:02;100583.53;;;20.41;100.00
41866;BME280;27539;43.222;27.558;2022-07-29T00:04:27;100573.50;;;20.35;100.00
41866;BME280;27539;43.222;27.558;2022-07-29T00:06:54;100546.19;;;20.17;100.00
41866;BME280;27539;43.222;27.558;2022-07-29T00:09:19;100581.78;;;20.32;100.00
41866;BME280;27539;43.222;27.558;2022-07-29T00:11:45;100549.31;;;20.15;100.00
41866;BME280;27539;43.222;27.558;2022-07-29T00:14:10;100569.72;;;20.40;100.00
41866;BME280;27539;43.222;27.558;2022-07-29T00:16:36;100577.47;;;20.48;100.00
41866;BME280;27539;43.222;27.558;2022-07-29T00:19:02;100566.38;;;20.38;100.00
41866;BME280;27539;43.222;27.558;2022-07-29T00:21:28;100564.19;;;20.35;100.00
41866;BME280;27539;43.222;27.558;2022-07-29T00:23:53;100557.28;;;20.27;100.00
41866;BME280;27539;43.222;27.558;2022-07-29T00:26:19;100583.44;;;20.33;100.00
41866;BME280;27539;43.222;27.558;2022-07-29T00:28:44;100567.72;;;20.13;100.00
41866;BME280;27539;43.222;27.558;2022-07-29T00:31:10;100589.91;;;20.19;100.00
41866;BME280;27539;43.222;27.558;2022-07-29T00:33:35;100605.59;;;20.12;100.00
41866;BME280;27539;43.222;27.558;2022-07-29T00:36:01;100597.41;;;20.10;100.00
41866;BME280;27539;43.222;27.558;2022-07-29T00:38:26;100602.09;;;20.01;100.00
41866;BME280;27539;43.222;27.558;2022-07-29T00:40:52;100572.13;;;19.86;100.00
41866;BME280;27539;43.222;27.558;2022-07-29T00:43:17;100591.03;;;20.04;100.00
41866;BME280;27539;43.222;27.558;2022-07-29T00:45:43;100594.25;;;19.98;100.00
41866;BME280;27539;43.222;27.558;2022-07-29T00:48:09;100594.97;;;19.90;100.00
41866;BME280;27539;43.222;27.558;2022-07-29T00:50:36;100596.44;;;20.01;100.00
41866;BME280;27539;43.222;27.558;2022-07-29T00:53:03;100592.69;;;19.92;100.00
41866;BME280;27539;43.222;27.558;2022-07-29T00:55:29;100596.72;;;19.85;100.00
41866;BME280;27539;43.222;27.558;2022-07-29T00:57:55;100595.63;;;19.68;100.00
41866;BME280;27539;43.222;27.558;2022-07-29T01:00:23;100596.03;;;19.56;100.00
41866;BME280;27539;43.222;27.558;2022-07-29T01:02:50;100595.47;;;19.59;100.00
41866;BME280;27539;43.222;27.558;2022-07-29T01:05:20;100595.53;;;19.73;100.00
41866;BME280;27539;43.222;27.558;2022-07-29T01:07:49;100592.31;;;19.79;100.00
41866;BME280;27539;43.222;27.558;2022-07-29T01:10:15;100592.22;;;19.65;100.00
41866;BME280;27539;43.222;27.558;2022-07-29T01:12:44;100581.94;;;19.56;100.00
41866;BME280;27539;43.222;27.558;2022-07-29T01:15:10;100587.88;;;19.73;100.00
41866;BME280;27539;43.222;27.558;2022-07-29T01:20:28;100595.78;;;19.76;100.00
41866;BME280;27539;43.222;27.558;2022-07-29T01:26:13;100591.09;;;19.67;100.00
41866;BME280;27539;43.222;27.558;2022-07-29T01:31:44;100562.28;;;19.51;100.00
41866;BME280;27539;43.222;27.558;2022-07-29T01:34:21;100553.97;;;19.40;100.00
41866;BME280;27539;43.222;27.558;2022-07-29T01:36:51;100584.25;;;19.54;100.00
41866;BME280;27539;43.222;27.558;2022-07-29T01:39:28;100581.09;;;19.55;100.00
41866;BME280;27539;43.222;27.558;2022-07-29T01:42:00;100541.41;;;19.33;100.00
41866;BME280;27539;43.222;27.558;2022-07-29T01:44:33;100586.28;;;19.48;100.00
41866;BME280;27539;43.222;27.558;2022-07-29T01:47:03;100580.34;;;19.50;100.00
41866;BME280;27539;43.222;27.558;2022-07-29T01:49:34;100580.53;;;19.39;100.00
41866;BME280;27539;43.222;27.558;2022-07-29T01:52:05;100578.38;;;19.50;100.00
41866;BME280;27539;43.222;27.558;2022-07-29T01:54:39;100590.66;;;19.59;100.00
41866;BME280;27539;43.222;27.558;2022-07-29T01:57:09;100571.28;;;19.53;100.00
41866;BME280;27539;43.222;27.558;2022-07-29T01:59:37;100574.25;;;19.61;100.00
41866;BME280;27539;43.222;27.558;2022-07-29T02:02:04;100569.53;;;19.57;100.00
41866;BME280;27539;43.222;27.558;2022-07-29T02:04:35;100568.69;;;19.56;100.00
41866;BME280;27539;43.222;27.558;2022-07-29T02:07:05;100575.56;;;19.69;100.00
41866;BME280;27539;43.222;27.558;2022-07-29T02:09:33;100526.75;;;19.50;100.00
41866;BME280;27539;43.222;27.558;2022-07-29T02:12:01;100555.81;;;19.69;100.00
41866;BME280;27539;43.222;27.558;2022-07-29T02:14:30;100561.66;;;19.73;100.00
41866;BME280;27539;43.222;27.558;2022-07-29T02:16:58;100559.13;;;19.71;100.00
41866;BME280;27539;43.222;27.558;2022-07-29T02:19:26;100553.94;;;19.78;100.00
41866;BME280;27539;43.222;27.558;2022-07-29T02:21:54;100563.38;;;19.88;100.00
41866;BME280;27539;43.222;27.558;2022-07-29T02:24:23;100568.47;;;19.85;100.00
41866;BME280;27539;43.222;27.558;2022-07-29T02:26:51;100567.56;;;19.90;100.00
41866;BME280;27539;43.222;27.558;2022-07-29T02:29:21;100558.34;;;19.84;100.00
41866;BME280;27539;43.222;27.558;2022-07-29T02:31:49;100572.91;;;19.92;100.00
41866;BME280;27539;43.222;27.558;2022-07-29T02:34:17;100563.47;;;19.82;100.00
41866;BME280;27539;43.222;27.558;2022-07-29T02:36:44;100566.50;;;19.86;100.00
41866;BME280;27539;43.222;27.558;2022-07-29T02:39:12;100573.41;;;19.94;100.00
41866;BME280;27539;43.222;27.558;2022-07-29T02:44:20;100570.53;;;19.99;100.00
41866;BME280;27539;43.222;27.558;2022-07-29T02:46:54;100572.94;;;20.05;100.00
41866;BME280;27539;43.222;27.558;2022-07-29T02:49:37;100582.56;;;20.04;100.00
41866;BME280;27539;43.222;27.558;2022-07-29T02:57:09;100586.16;;;19.91;100.00
41866;BME280;27539;43.222;27.558;2022-07-29T02:59:36;100583.47;;;20.00;100.00
41866;BME280;27539;43.222;27.558;2022-07-29T03:02:07;100581.28;;;19.97;100.00
41866;BME280;27539;43.222;27.558;2022-07-29T03:04:34;100586.75;;;20.07;100.00
41866;BME280;27539;43.222;27.558;2022-07-29T03:07:01;100579.94;;;20.08;100.00
41866;BME280;27539;43.222;27.558;2022-07-29T03:09:27;100587.66;;;20.02;100.00
41866;BME280;27539;43.222;27.558;2022-07-29T03:11:54;100581.09;;;20.07;100.00
41866;BME280;27539;43.222;27.558;2022-07-29T03:14:21;100580.38;;;20.15;100.00
41866;BME280;27539;43.222;27.558;2022-07-29T03:16:48;100601.13;;;20.24;100.00
41866;BME280;27539;43.222;27.558;2022-07-29T03:19:14;100600.25;;;20.10;100.00
41866;BME280;27539;43.222;27.558;2022-07-29T03:21:39;100601.69;;;20.07;100.00
41866;BME280;27539;43.222;27.558;2022-07-29T03:24:05;100608.81;;;20.19;100.00
41866;BME280;27539;43.222;27.558;2022-07-29T03:26:31;100600.34;;;20.19;100.00
41866;BME280;27539;43.222;27.558;2022-07-29T03:28:56;100586.84;;;20.16;100.00
41866;BME280;27539;43.222;27.558;2022-07-29T03:31:22;100570.75;;;20.16;100.00
41866;BME280;27539;43.222;27.558;2022-07-29T03:33:47;100571.41;;;20.27;100.00
41866;BME280;27539;43.222;27.558;2022-07-29T03:36:13;100593.59;;;20.47;100.00
41866;BME280;27539;43.222;27.558;2022-07-29T03:38:40;100606.72;;;20.57;100.00
41866;BME280;27539;43.222;27.558;2022-07-29T03:41:10;100615.63;;;20.64;100.00
41866;BME280;27539;43.222;27.558;2022-07-29T03:43:38;100613.19;;;20.71;100.00
41866;BME280;27539;43.222;27.558;2022-07-29T03:46:07;100587.25;;;20.69;100.00
41866;BME280;27539;43.222;27.558;2022-07-29T03:48:36;100610.69;;;20.98;100.00
41866;BME280;27539;43.222;27.558;2022-07-29T03:51:03;100604.06;;;21.02;100.00
41866;BME280;27539;43.222;27.558;2022-07-29T03:53:29;100618.41;;;21.06;100.00
41866;BME280;27539;43.222;27.558;2022-07-29T03:55:57;100613.91;;;21.05;100.00
41866;BME280;27539;43.222;27.558;2022-07-29T03:58:26;100586.66;;;21.09;100.00
41866;BME280;27539;43.222;27.558;2022-07-29T04:00:52;100597.53;;;21.15;100.00
41866;BME280;27539;43.222;27.558;2022-07-29T04:03:19;100612.28;;;21.40;100.00
41866;BME280;27539;43.222;27.558;2022-07-29T04:05:44;100594.56;;;21.34;100.00
41866;BME280;27539;43.222;27.558;2022-07-29T04:08:10;100591.94;;;21.38;100.00
41866;BME280;27539;43.222;27.558;2022-07-29T04:10:35;100611.28;;;21.58;100.00
41866;BME280;27539;43.222;27.558;2022-07-29T04:13:01;100612.09;;;21.59;100.00
41866;BME280;27539;43.222;27.558;2022-07-29T04:15:27;100611.28;;;21.81;100.00
41866;BME280;27539;43.222;27.558;2022-07-29T04:17:54;100617.22;;;21.93;100.00
41866;BME280;27539;43.222;27.558;2022-07-29T04:20:19;100595.25;;;21.99;100.00
41866;BME280;27539;43.222;27.558;2022-07-29T04:22:45;100605.09;;;22.24;100.00
41866;BME280;27539;43.222;27.558;2022-07-29T04:25:10;100606.34;;;22.40;100.00
41866;BME280;27539;43.222;27.558;2022-07-29T04:27:36;100604.19;;;22.37;100.00
41866;BME280;27539;43.222;27.558;2022-07-29T04:30:21;100607.25;;;22.50;100.00
41866;BME280;27539;43.222;27.558;2022-07-29T04:32:46;100613.09;;;22.62;100.00
41866;BME280;27539;43.222;27.558;2022-07-29T04:35:12;100585.94;;;22.61;100.00
41866;BME280;27539;43.222;27.558;2022-07-29T04:37:37;100571.50;;;22.80;100.00
41866;BME280;27539;43.222;27.558;2022-07-29T04:40:03;100596.94;;;23.11;100.00
41866;BME280;27539;43.222;27.558;2022-07-29T04:42:29;100594.13;;;23.28;100.00
41866;BME280;27539;43.222;27.558;2022-07-29T04:44:54;100577.28;;;23.41;100.00
41866;BME280;27539;43.222;27.558;2022-07-29T04:47:20;100563.56;;;23.34;100.00
41866;BME280;27539;43.222;27.558;2022-07-29T04:49:45;100546.19;;;23.27;100.00
41866;BME280;27539;43.222;27.558;2022-07-29T04:52:10;100572.75;;;23.66;100.00
41866;BME280;27539;43.222;27.558;2022-07-29T04:54:36;100565.41;;;23.74;100.00
41866;BME280;27539;43.222;27.558;2022-07-29T04:57:01;100550.88;;;23.84;100.00
41866;BME280;27539;43.222;27.558;2022-07-29T04:59:27;100577.22;;;24.10;100.00
41866;BME280;27539;43.222;27.558;2022-07-29T05:01:53;100579.50;;;24.26;100.00
41866;BME280;27539;43.222;27.558;2022-07-29T05:04:18;100576.81;;;24.29;100.00
41866;BME280;27539;43.222;27.558;2022-07-29T05:06:43;100578.81;;;24.46;100.00
41866;BME280;27539;43.222;27.558;2022-07-29T05:09:09;100575.13;;;24.46;100.00
41866;BME280;27539;43.222;27.558;2022-07-29T05:11:35;100569.75;;;24.53;100.00
41866;BME280;27539;43.222;27.558;2022-07-29T05:14:00;100576.63;;;24.82;100.00
41866;BME280;27539;43.222;27.558;2022-07-29T05:16:25;100575.22;;;24.88;100.00
41866;BME280;27539;43.222;27.558;2022-07-29T05:18:51;100583.19;;;25.03;100.00
41866;BME280;27539;43.222;27.558;2022-07-29T05:21:16;100582.91;;;25.26;100.00
41866;BME280;27539;43.222;27.558;2022-07-29T05:23:42;100570.19;;;25.44;100.00
41866;BME280;27539;43.222;27.558;2022-07-29T05:26:07;100575.03;;;25.64;100.00
41866;BME280;27539;43.222;27.558;2022-07-29T05:28:34;100559.91;;;25.52;100.00
41866;BME280;27539;43.222;27.558;2022-07-29T05:31:02;100577.53;;;25.87;100.00
41866;BME280;27539;43.222;27.558;2022-07-29T05:33:28;100568.63;;;25.89;100.00
41866;BME280;27539;43.222;27.558;2022-07-29T05:35:54;100548.88;;;25.83;100.00
41866;BME280;27539;43.222;27.558;2022-07-29T05:38:19;100579.38;;;26.04;100.00
41866;BME280;27539;43.222;27.558;2022-07-29T05:40:44;100588.53;;;26.10;100.00
41866;BME280;27539;43.222;27.558;2022-07-29T05:43:10;100589.13;;;26.15;100.00
41866;BME280;27539;43.222;27.558;2022-07-29T05:45:35;100579.56;;;26.44;100.00
41866;BME280;27539;43.222;27.558;2022-07-29T05:48:02;100584.72;;;26.63;100.00
41866;BME280;27539;43.222;27.558;2022-07-29T05:50:27;100585.78;;;26.83;100.00
41866;BME280;27539;43.222;27.558;2022-07-29T05:52:53;100576.72;;;27.06;100.00
41866;BME280;27539;43.222;27.558;2022-07-29T05:55:18;100585.28;;;27.30;100.00
41866;BME280;27539;43.222;27.558;2022-07-29T05:57:44;100586.91;;;27.44;100.00
41866;BME280;27539;43.222;27.558;2022-07-29T06:00:10;100587.16;;;27.39;99.50
41866;BME280;27539;43.222;27.558;2022-07-29T06:02:36;100572.28;;;27.45;98.51
41866;BME280;27539;43.222;27.558;2022-07-29T06:05:02;100582.06;;;27.44;91.82
41866;BME280;27539;43.222;27.558;2022-07-29T06:07:27;100581.63;;;27.58;95.57
41866;BME280;27539;43.222;27.558;2022-07-29T06:09:53;100575.53;;;27.72;88.53
41866;BME280;27539;43.222;27.558;2022-07-29T06:12:18;100567.31;;;27.98;85.55
41866;BME280;27539;43.222;27.558;2022-07-29T06:14:45;100572.91;;;28.23;81.45
41866;BME280;27539;43.222;27.558;2022-07-29T06:17:10;100569.28;;;28.26;78.89
41866;BME280;27539;43.222;27.558;2022-07-29T06:19:37;100573.72;;;28.52;81.61
41866;BME280;27539;43.222;27.558;2022-07-29T06:22:03;100586.06;;;28.56;77.50
41866;BME280;27539;43.222;27.558;2022-07-29T06:24:29;100573.97;;;28.62;73.04
41866;BME280;27539;43.222;27.558;2022-07-29T06:26:54;100556.53;;;28.52;74.96
41866;BME280;27539;43.222;27.558;2022-07-29T06:29:20;100575.63;;;28.79;72.30
41866;BME280;27539;43.222;27.558;2022-07-29T06:31:45;100574.84;;;28.98;72.79
41866;BME280;27539;43.222;27.558;2022-07-29T06:34:11;100569.84;;;29.27;76.72
41866;BME280;27539;43.222;27.558;2022-07-29T06:36:37;100571.41;;;29.24;71.24
41866;BME280;27539;43.222;27.558;2022-07-29T06:39:08;100527.34;;;29.13;73.57
41866;BME280;27539;43.222;27.558;2022-07-29T06:41:34;100555.97;;;29.48;71.58
41866;BME280;27539;43.222;27.558;2022-07-29T06:44:00;100557.19;;;29.47;68.66
41866;BME280;27539;43.222;27.558;2022-07-29T06:46:26;100544.41;;;29.64;71.95
41866;BME280;27539;43.222;27.558;2022-07-29T06:48:52;100548.06;;;29.81;69.25
41866;BME280;27539;43.222;27.558;2022-07-29T06:51:18;100549.97;;;30.15;71.73
41866;BME280;27539;43.222;27.558;2022-07-29T06:53:44;100527.72;;;30.09;64.80
41866;BME280;27539;43.222;27.558;2022-07-29T06:56:09;100538.81;;;30.30;68.14
41866;BME280;27539;43.222;27.558;2022-07-29T06:58:35;100549.19;;;30.38;62.04
41866;BME280;27539;43.222;27.558;2022-07-29T07:01:03;100555.88;;;30.46;66.05
41866;BME280;27539;43.222;27.558;2022-07-29T07:03:29;100546.25;;;30.57;65.76
41866;BME280;27539;43.222;27.558;2022-07-29T07:05:55;100551.78;;;30.47;62.21
41866;BME280;27539;43.222;27.558;2022-07-29T07:08:21;100548.25;;;30.57;60.95
41866;BME280;27539;43.222;27.558;2022-07-29T07:10:48;100548.34;;;30.84;64.75
41866;BME280;27539;43.222;27.558;2022-07-29T07:13:13;100542.59;;;30.84;60.86
41866;BME280;27539;43.222;27.558;2022-07-29T07:15:40;100519.03;;;30.74;58.40
41866;BME280;27539;43.222;27.558;2022-07-29T07:18:06;100531.69;;;30.96;61.34
41866;BME280;27539;43.222;27.558;2022-07-29T07:20:33;100541.97;;;31.24;61.96
41866;BME280;27539;43.222;27.558;2022-07-29T07:22:58;100550.50;;;31.47;57.58
41866;BME280;27539;43.222;27.558;2022-07-29T07:25:24;100539.75;;;31.40;56.28
41866;BME280;27539;43.222;27.558;2022-07-29T07:27:49;100534.59;;;31.53;58.43
41866;BME280;27539;43.222;27.558;2022-07-29T07:30:15;100541.44;;;31.75;58.16
41866;BME280;27539;43.222;27.558;2022-07-29T07:32:40;100547.69;;;31.51;57.65
41866;BME280;27539;43.222;27.558;2022-07-29T07:35:08;100553.47;;;31.54;54.54
41866;BME280;27539;43.222;27.558;2022-07-29T07:37:33;100540.94;;;31.70;56.45
41866;BME280;27539;43.222;27.558;2022-07-29T07:39:59;100543.34;;;31.37;57.45
41866;BME280;27539;43.222;27.558;2022-07-29T07:42:25;100545.91;;;31.42;56.78
41866;BME280;27539;43.222;27.558;2022-07-29T07:44:50;100553.38;;;31.47;56.59
41866;BME280;27539;43.222;27.558;2022-07-29T07:47:16;100550.16;;;31.52;57.69
41866;BME280;27539;43.222;27.558;2022-07-29T07:49:48;100515.63;;;31.49;57.54
41866;BME280;27539;43.222;27.558;2022-07-29T07:52:16;100537.16;;;31.62;54.92
41866;BME280;27539;43.222;27.558;2022-07-29T07:54:41;100554.47;;;31.66;56.92
41866;BME280;27539;43.222;27.558;2022-07-29T07:57:08;100528.41;;;31.55;56.87
41866;BME280;27539;43.222;27.558;2022-07-29T07:59:34;100548.75;;;32.03;58.36
41866;BME280;27539;43.222;27.558;2022-07-29T08:01:59;100527.53;;;32.18;60.22
41866;BME280;27539;43.222;27.558;2022-07-29T08:04:25;100547.69;;;32.63;58.43
41866;BME280;27539;43.222;27.558;2022-07-29T08:06:51;100541.19;;;32.69;58.02
41866;BME280;27539;43.222;27.558;2022-07-29T08:09:22;100545.94;;;32.99;53.58
41866;BME280;27539;43.222;27.558;2022-07-29T08:11:47;100540.91;;;32.89;50.56
41866;BME280;27539;43.222;27.558;2022-07-29T08:14:13;100539.31;;;32.95;52.76
41866;BME280;27539;43.222;27.558;2022-07-29T08:16:39;100548.50;;;33.11;55.66
41866;BME280;27539;43.222;27.558;2022-07-29T08:19:06;100539.63;;;33.42;57.70
41866;BME280;27539;43.222;27.558;2022-07-29T08:21:31;100520.19;;;33.28;51.63
41866;BME280;27539;43.222;27.558;2022-07-29T08:23:56;100550.38;;;33.48;55.85
41866;BME280;27539;43.222;27.558;2022-07-29T08:26:42;100546.34;;;33.64;55.33
41866;BME280;27539;43.222;27.558;2022-07-29T08:29:08;100552.91;;;33.61;51.79
41866;BME280;27539;43.222;27.558;2022-07-29T08:31:37;100536.84;;;33.60;51.26
41866;BME280;27539;43.222;27.558;2022-07-29T08:34:04;100543.81;;;33.55;53.58
41866;BME280;27539;43.222;27.558;2022-07-29T08:36:30;100524.44;;;32.86;51.04
41866;BME280;27539;43.222;27.558;2022-07-29T08:38:55;100531.91;;;32.98;53.70
41866;BME280;27539;43.222;27.558;2022-07-29T08:41:21;100542.47;;;33.31;53.35
41866;BME280;27539;43.222;27.558;2022-07-29T08:43:48;100534.59;;;33.28;54.07
41866;BME280;27539;43.222;27.558;2022-07-29T08:46:14;100525.69;;;33.58;53.08
41866;BME280;27539;43.222;27.558;2022-07-29T08:48:41;100516.72;;;33.81;50.82
41866;BME280;27539;43.222;27.558;2022-07-29T08:51:07;100536.63;;;34.22;49.37
41866;BME280;27539;43.222;27.558;2022-07-29T08:53:33;100527.47;;;33.91;46.71
41866;BME280;27539;43.222;27.558;2022-07-29T08:56:00;100519.63;;;33.95;47.50
41866;BME280;27539;43.222;27.558;2022-07-29T08:58:32;100532.28;;;33.55;49.62
41866;BME280;27539;43.222;27.558;2022-07-29T09:01:02;100533.03;;;33.45;48.50
41866;BME280;27539;43.222;27.558;2022-07-29T09:03:33;100523.19;;;33.49;50.16
41866;BME280;27539;43.222;27.558;2022-07-29T09:06:01;100511.38;;;33.90;47.24
41866;BME280;27539;43.222;27.558;2022-07-29T09:08:27;100504.44;;;34.09;47.58
41866;BME280;27539;43.222;27.558;2022-07-29T09:10:53;100514.75;;;34.17;46.67
41866;BME280;27539;43.222;27.558;2022-07-29T09:13:21;100511.47;;;34.33;48.35
41866;BME280;27539;43.222;27.558;2022-07-29T09:15:47;100494.16;;;34.55;45.20
41866;BME280;27539;43.222;27.558;2022-07-29T09:18:35;100501.16;;;34.82;47.99
41866;BME280;27539;43.222;27.558;2022-07-29T09:21:00;100475.56;;;34.81;46.50
41866;BME280;27539;43.222;27.558;2022-07-29T09:24:06;100501.94;;;35.22;45.59
41866;BME280;27539;43.222;27.558;2022-07-29T09:26:36;100494.91;;;35.16;42.46
41866;BME280;27539;43.222;27.558;2022-07-29T09:29:11;100495.25;;;35.40;42.76
41866;BME280;27539;43.222;27.558;2022-07-29T09:31:39;100488.81;;;34.71;43.05
41866;BME280;27539;43.222;27.558;2022-07-29T09:34:06;100494.16;;;34.51;45.55
41866;BME280;27539;43.222;27.558;2022-07-29T09:36:42;100494.13;;;34.83;45.06
41866;BME280;27539;43.222;27.558;2022-07-29T09:39:08;100487.13;;;34.31;45.07
41866;BME280;27539;43.222;27.558;2022-07-29T09:41:49;100478.50;;;34.24;44.71
41866;BME280;27539;43.222;27.558;2022-07-29T09:44:15;100489.63;;;34.25;46.85
41866;BME280;27539;43.222;27.558;2022-07-29T09:46:56;100484.25;;;34.63;45.92
41866;BME280;27539;43.222;27.558;2022-07-29T09:49:22;100459.94;;;34.64;43.90
41866;BME280;27539;43.222;27.558;2022-07-29T09:51:59;100490.41;;;35.12;44.95
41866;BME280;27539;43.222;27.558;2022-07-29T09:54:26;100478.38;;;35.24;45.38
41866;BME280;27539;43.222;27.558;2022-07-29T09:56:54;100461.97;;;34.74;43.96
41866;BME280;27539;43.222;27.558;2022-07-29T09:59:20;100480.94;;;34.82;42.53
41866;BME280;27539;43.222;27.558;2022-07-29T10:01:48;100460.25;;;34.91;43.72
41866;BME280;27539;43.222;27.558;2022-07-29T10:04:15;100448.28;;;35.14;43.30
41866;BME280;27539;43.222;27.558;2022-07-29T10:07:01;100485.44;;;35.12;40.35
41866;BME280;27539;43.222;27.558;2022-07-29T10:09:27;100477.25;;;34.42;41.86
41866;BME280;27539;43.222;27.558;2022-07-29T10:12:22;100475.59;;;34.70;43.55
41866;BME280;27539;43.222;27.558;2022-07-29T10:14:49;100469.31;;;35.15;42.76
41866;BME280;27539;43.222;27.558;2022-07-29T10:17:15;100477.44;;;35.48;42.92
41866;BME280;27539;43.222;27.558;2022-07-29T10:19:41;100474.09;;;35.64;40.13
41866;BME280;27539;43.222;27.558;2022-07-29T10:22:09;100475.31;;;35.63;38.84
41866;BME280;27539;43.222;27.558;2022-07-29T10:24:36;100475.16;;;35.92;41.09
41866;BME280;27539;43.222;27.558;2022-07-29T10:27:04;100461.63;;;35.75;39.40
41866;BME280;27539;43.222;27.558;2022-07-29T10:29:30;100470.94;;;36.04;40.47
41866;BME280;27539;43.222;27.558;2022-07-29T10:40:45;100465.75;;;35.74;37.89
41866;BME280;27539;43.222;27.558;2022-07-29T10:43:37;100447.50;;;35.87;38.77
41866;BME280;27539;43.222;27.558;2022-07-29T10:46:05;100460.16;;;36.11;39.44
41866;BME280;27539;43.222;27.558;2022-07-29T10:48:32;100461.00;;;36.12;37.76
41866;BME280;27539;43.222;27.558;2022-07-29T10:51:00;100464.19;;;36.25;38.56
41866;BME280;27539;43.222;27.558;2022-07-29T10:53:51;100462.31;;;35.93;38.01
41866;BME280;27539;43.222;27.558;2022-07-29T10:56:31;100458.25;;;35.87;36.17
41866;BME280;27539;43.222;27.558;2022-07-29T11:01:49;100450.34;;;35.91;38.07
41866;BME280;27539;43.222;27.558;2022-07-29T11:04:16;100453.28;;;35.87;36.54
41866;BME280;27539;43.222;27.558;2022-07-29T11:09:29;100450.47;;;36.32;37.65
41866;BME280;27539;43.222;27.558;2022-07-29T11:11:58;100450.88;;;36.34;36.46
41866;BME280;27539;43.222;27.558;2022-07-29T11:15:05;100461.53;;;36.45;35.71
41866;BME280;27539;43.222;27.558;2022-07-29T11:20:42;100460.84;;;36.30;35.74
41866;BME280;27539;43.222;27.558;2022-07-29T11:23:29;100456.84;;;36.13;35.25
41866;BME280;27539;43.222;27.558;2022-07-29T11:29:05;100458.28;;;35.80;37.00
41866;BME280;27539;43.222;27.558;2022-07-29T11:31:32;100455.63;;;36.10;37.51
41866;BME280;27539;43.222;27.558;2022-07-29T11:39:38;100450.88;;;36.31;36.60
41866;BME280;27539;43.222;27.558;2022-07-29T11:44:55;100451.88;;;36.06;35.37
41866;BME280;27539;43.222;27.558;2022-07-29T11:47:25;100441.38;;;35.71;35.37
41866;BME280;27539;43.222;27.558;2022-07-29T11:49:51;100406.50;;;35.19;36.22
41866;BME280;27539;43.222;27.558;2022-07-29T11:52:18;100446.22;;;35.04;37.51
41866;BME280;27539;43.222;27.558;2022-07-29T11:54:44;100429.59;;;35.37;36.67
41866;BME280;27539;43.222;27.558;2022-07-29T11:57:12;100429.22;;;35.20;37.03
41866;BME280;27539;43.222;27.558;2022-07-29T11:59:45;100428.28;;;35.41;37.39
41866;BME280;27539;43.222;27.558;2022-07-29T12:02:12;100426.50;;;35.69;36.62
41866;BME280;27539;43.222;27.558;2022-07-29T12:04:54;100425.19;;;35.84;37.72
41866;BME280;27539;43.222;27.558;2022-07-29T12:07:27;100424.34;;;35.84;37.49
41866;BME280;27539;43.222;27.558;2022-07-29T12:09:53;100403.25;;;35.87;37.32
41866;BME280;27539;43.222;27.558;2022-07-29T12:12:20;100411.53;;;35.81;36.73
41866;BME280;27539;43.222;27.558;2022-07-29T12:14:46;100397.69;;;35.44;38.37
41866;BME280;27539;43.222;27.558;2022-07-29T12:17:34;100408.69;;;35.78;37.04
41866;BME280;27539;43.222;27.558;2022-07-29T12:20:02;100388.97;;;35.51;36.47
41866;BME280;27539;43.222;27.558;2022-07-29T12:22:32;100390.63;;;35.59;37.30
41866;BME280;27539;43.222;27.558;2022-07-29T12:25:10;100387.72;;;35.56;38.43
41866;BME280;27539;43.222;27.558;2022-07-29T12:27:37;100397.88;;;35.85;38.12
41866;BME280;27539;43.222;27.558;2022-07-29T12:30:08;100395.03;;;35.82;36.31
41866;BME280;27539;43.222;27.558;2022-07-29T12:32:36;100365.84;;;35.55;37.90
41866;BME280;27539;43.222;27.558;2022-07-29T12:35:04;100379.38;;;35.72;37.86
41866;BME280;27539;43.222;27.558;2022-07-29T12:37:32;100394.31;;;35.56;38.14
41866;BME280;27539;43.222;27.558;2022-07-29T12:39:59;100372.06;;;35.49;38.77
41866;BME280;27539;43.222;27.558;2022-07-29T12:42:25;100382.63;;;34.97;38.85
41866;BME280;27539;43.222;27.558;2022-07-29T12:44:50;100379.66;;;35.18;39.13
41866;BME280;27539;43.222;27.558;2022-07-29T12:47:17;100375.44;;;35.37;39.49
41866;BME280;27539;43.222;27.558;2022-07-29T12:49:44;100350.94;;;35.56;38.01
41866;BME280;27539;43.222;27.558;2022-07-29T12:52:27;100376.03;;;35.77;37.12
41866;BME280;27539;43.222;27.558;2022-07-29T12:54:52;100374.50;;;35.62;38.20
41866;BME280;27539;43.222;27.558;2022-07-29T12:57:18;100372.09;;;35.42;37.79
41866;BME280;27539;43.222;27.558;2022-07-29T12:59:44;100366.31;;;35.39;37.71
41866;BME280;27539;43.222;27.558;2022-07-29T13:02:21;100361.50;;;35.21;37.78
41866;BME280;27539;43.222;27.558;2022-07-29T13:04:55;100367.63;;;35.31;38.71
41866;BME280;27539;43.222;27.558;2022-07-29T13:07:27;100337.81;;;35.41;40.16
41866;BME280;27539;43.222;27.558;2022-07-29T13:09:54;100363.97;;;35.86;38.56
41866;BME280;27539;43.222;27.558;2022-07-29T13:12:34;100370.22;;;35.81;37.10
41866;BME280;27539;43.222;27.558;2022-07-29T13:14:59;100368.59;;;35.76;38.46
41866;BME280;27539;43.222;27.558;2022-07-29T13:17:26;100373.25;;;35.56;37.44
41866;BME280;27539;43.222;27.558;2022-07-29T13:20:07;100336.44;;;35.67;38.66
41866;BME280;27539;43.222;27.558;2022-07-29T13:22:37;100366.03;;;35.85;37.12
41866;BME280;27539;43.222;27.558;2022-07-29T13:25:04;100362.78;;;35.80;36.67
41866;BME280;27539;43.222;27.558;2022-07-29T13:27:33;100361.56;;;35.74;37.27